createdAt,value
2019-01-25T00:00:24.225Z,38.10
2019-01-25T00:02:52.624Z,38.30
2019-01-25T00:05:21.015Z,38.20
2019-01-25T00:07:49.402Z,38.30
2019-01-25T00:10:17.831Z,38.40
2019-01-25T00:12:46.211Z,38.40
2019-01-25T00:15:14.599Z,38.50
2019-01-25T00:17:42.989Z,38.50
2019-01-25T00:20:14.611Z,38.60
2019-01-25T00:22:42.964Z,38.60
2019-01-25T00:25:11.371Z,38.60
2019-01-25T00:27:39.701Z,38.70
2019-01-25T00:30:15.792Z,38.60
2019-01-25T00:32:44.175Z,38.70
2019-01-25T00:35:12.570Z,38.60
2019-01-25T00:37:40.929Z,38.80
2019-01-25T00:40:12.369Z,38.70
2019-01-25T00:42:40.651Z,38.70
2019-01-25T00:45:10.618Z,38.60
2019-01-25T00:47:38.993Z,38.50
2019-01-25T00:50:16.257Z,38.40
2019-01-25T00:52:44.609Z,38.20
2019-01-25T00:55:13.105Z,38.20
2019-01-25T00:57:41.459Z,38.50
2019-01-25T01:00:15.728Z,38.00
2019-01-25T01:02:44.055Z,37.90
2019-01-25T01:05:12.525Z,37.60
2019-01-25T01:07:40.856Z,37.60
2019-01-25T01:10:14.250Z,37.50
2019-01-25T01:12:41.069Z,37.30
2019-01-25T01:15:12.287Z,37.20
2019-01-25T01:17:40.725Z,37.20
2019-01-25T01:20:11.707Z,37.10
2019-01-25T01:22:40.040Z,37.10
2019-01-25T01:25:09.206Z,37.10
2019-01-25T01:27:37.557Z,37.20
2019-01-25T01:30:11.904Z,37.20
2019-01-25T01:32:40.304Z,37.30
2019-01-25T01:35:08.684Z,37.30
2019-01-25T01:37:37.007Z,37.40
2019-01-25T01:40:08.770Z,37.40
2019-01-25T01:42:37.105Z,37.40
2019-01-25T01:45:07.404Z,37.50
2019-01-25T01:47:35.845Z,37.60
2019-01-25T01:50:07.159Z,37.60
2019-01-25T01:52:35.548Z,37.50
2019-01-25T01:55:04.880Z,37.40
2019-01-25T01:57:33.240Z,37.40
2019-01-25T02:00:01.600Z,37.30
2019-01-25T02:02:29.923Z,37.30
2019-01-25T02:04:58.322Z,37.20
2019-01-25T02:07:26.780Z,37.20
2019-01-25T02:09:55.167Z,37.20
2019-01-25T02:12:23.607Z,37.20
2019-01-25T02:14:51.981Z,37.20
2019-01-25T02:17:20.278Z,37.20
2019-01-25T02:19:48.588Z,37.20
2019-01-25T02:22:16.948Z,37.20
2019-01-25T02:24:45.319Z,37.10
2019-01-25T02:27:13.656Z,37.20
2019-01-25T02:29:42.024Z,37.20
2019-01-25T02:32:10.348Z,37.10
2019-01-25T02:34:38.812Z,37.10
2019-01-25T02:37:07.129Z,37.30
2019-01-25T02:39:35.511Z,37.40
2019-01-25T02:42:03.807Z,37.30
2019-01-25T02:44:32.229Z,37.30
2019-01-25T02:47:00.586Z,37.40
2019-01-25T02:49:28.985Z,37.50
2019-01-25T02:51:57.554Z,37.70
2019-01-25T02:54:25.982Z,37.80
2019-01-25T02:56:54.523Z,37.70
2019-01-25T02:59:22.937Z,37.70
2019-01-25T03:01:51.304Z,37.60
2019-01-25T03:04:19.788Z,37.60
2019-01-25T03:06:48.206Z,37.60
2019-01-25T03:09:16.581Z,37.60
2019-01-25T03:11:44.997Z,37.60
2019-01-25T03:14:13.398Z,37.60
2019-01-25T03:16:41.777Z,37.70
2019-01-25T03:19:10.216Z,37.60
2019-01-25T03:21:38.541Z,37.70
2019-01-25T03:24:06.921Z,37.70
2019-01-25T03:26:35.367Z,37.70
2019-01-25T03:29:03.824Z,37.80
2019-01-25T03:31:32.271Z,37.70
2019-01-25T03:34:00.678Z,37.60
2019-01-25T03:36:29.095Z,37.40
2019-01-25T03:38:57.468Z,37.30
2019-01-25T03:41:25.861Z,37.20
2019-01-25T03:43:54.233Z,37.00
2019-01-25T03:46:22.566Z,36.70
2019-01-25T03:48:51.047Z,36.80
2019-01-25T03:51:19.420Z,36.70
2019-01-25T03:53:47.774Z,36.70
2019-01-25T03:56:16.086Z,36.60
2019-01-25T03:58:44.556Z,36.60
2019-01-25T04:01:12.906Z,36.70
2019-01-25T04:03:41.311Z,36.70
2019-01-25T04:06:09.705Z,36.70
2019-01-25T04:08:38.099Z,36.70
2019-01-25T04:11:06.482Z,36.70
2019-01-25T04:13:34.909Z,36.50
2019-01-25T04:16:03.289Z,36.60
2019-01-25T04:18:31.702Z,36.60
2019-01-25T04:21:00.093Z,36.50
2019-01-25T04:23:29.446Z,36.60
2019-01-25T04:25:57.815Z,36.60
2019-01-25T04:28:26.137Z,36.50
2019-01-25T04:30:54.430Z,36.60
2019-01-25T04:33:22.745Z,36.50
2019-01-25T04:35:51.282Z,36.60
2019-01-25T04:38:19.630Z,36.50
2019-01-25T04:40:48.026Z,36.50
2019-01-25T04:43:16.421Z,36.50
2019-01-25T04:45:44.777Z,36.50
2019-01-25T04:48:13.791Z,36.40
2019-01-25T04:50:42.194Z,36.40
2019-01-25T04:53:10.653Z,36.30
2019-01-25T04:55:39.061Z,36.10
2019-01-25T04:58:12.443Z,36.00
2019-01-25T05:00:40.838Z,36.00
2019-01-25T05:03:09.235Z,36.00
2019-01-25T05:05:37.627Z,36.00
2019-01-25T05:08:11.028Z,35.90
2019-01-25T05:10:39.492Z,36.00
2019-01-25T05:13:07.869Z,35.90
2019-01-25T05:15:36.177Z,35.80
2019-01-25T05:18:04.897Z,35.80
2019-01-25T05:20:33.295Z,35.80
2019-01-25T05:23:03.372Z,35.90
2019-01-25T05:25:31.752Z,35.90
2019-01-25T05:28:09.833Z,35.90
2019-01-25T05:30:38.304Z,35.90
2019-01-25T05:33:06.745Z,36.00
2019-01-25T05:35:36.352Z,36.10
2019-01-25T05:38:04.816Z,36.00
2019-01-25T05:40:33.311Z,36.10
2019-01-25T05:43:01.743Z,36.10
2019-01-25T05:45:30.101Z,36.00
2019-01-25T05:47:58.527Z,36.00
2019-01-25T05:50:26.889Z,36.10
2019-01-25T05:52:55.219Z,36.10
2019-01-25T05:55:23.711Z,36.10
2019-01-25T05:57:56.861Z,36.10
2019-01-25T06:00:26.884Z,36.10
2019-01-25T06:02:55.188Z,36.00
2019-01-25T06:05:23.489Z,36.00
2019-01-25T06:07:51.881Z,35.80
2019-01-25T06:10:20.285Z,35.80
2019-01-25T06:12:51.912Z,35.80
2019-01-25T06:15:20.252Z,35.80
2019-01-25T06:17:48.734Z,35.50
2019-01-25T06:20:17.006Z,35.60
2019-01-25T06:22:45.362Z,35.50
2019-01-25T06:25:13.777Z,35.60
2019-01-25T06:27:42.218Z,35.60
2019-01-25T06:30:14.580Z,35.70
2019-01-25T06:32:42.969Z,35.90
2019-01-25T06:35:12.228Z,35.90
2019-01-25T06:37:40.593Z,35.90
2019-01-25T06:40:15.953Z,35.90
2019-01-25T06:42:44.356Z,35.90
2019-01-25T06:45:12.847Z,36.00
2019-01-25T06:47:41.177Z,36.00
2019-01-25T06:50:11.517Z,35.80
2019-01-25T06:52:39.796Z,35.80
2019-01-25T06:55:08.445Z,35.80
2019-01-25T06:57:44.246Z,35.80
2019-01-25T07:00:16.827Z,35.80
2019-01-25T07:02:45.225Z,35.80
2019-01-25T07:05:13.633Z,35.80
2019-01-25T07:07:43.088Z,35.80
2019-01-25T07:10:14.224Z,35.90
2019-01-25T07:12:42.607Z,35.90
2019-01-25T07:15:12.620Z,35.90
2019-01-25T07:17:41.016Z,35.90
2019-01-25T07:20:12.253Z,35.90
2019-01-25T07:22:40.832Z,36.00
2019-01-25T07:25:13.998Z,35.90
2019-01-25T07:27:42.331Z,36.00
2019-01-25T07:30:17.190Z,36.00
2019-01-25T07:32:45.736Z,36.00
2019-01-25T07:35:14.267Z,35.90
2019-01-25T07:37:42.614Z,35.90
2019-01-25T07:40:11.593Z,36.00
2019-01-25T07:42:40.081Z,35.80
2019-01-25T07:45:12.777Z,36.00
2019-01-25T07:47:41.166Z,36.00
2019-01-25T07:50:12.829Z,35.80
2019-01-25T07:52:41.363Z,35.80
2019-01-25T07:55:13.276Z,35.80
2019-01-25T07:57:41.678Z,35.80
2019-01-25T08:00:15.056Z,35.70
2019-01-25T08:02:43.498Z,35.70
2019-01-25T08:05:11.982Z,35.70
2019-01-25T08:07:40.457Z,35.90
2019-01-25T08:10:15.406Z,35.70
2019-01-25T08:12:43.899Z,35.70
2019-01-25T08:15:23.599Z,35.60
2019-01-25T08:17:52.002Z,35.50
2019-01-25T08:20:20.397Z,35.50
2019-01-25T08:22:48.719Z,35.50
2019-01-25T08:25:17.646Z,35.60
2019-01-25T08:27:46.072Z,35.60
2019-01-25T08:30:23.149Z,35.50
2019-01-25T08:32:51.861Z,35.40
2019-01-25T08:35:20.477Z,35.40
2019-01-25T08:37:48.973Z,35.50
2019-01-25T08:40:18.054Z,35.50
2019-01-25T08:42:46.445Z,35.50
2019-01-25T08:45:18.800Z,35.60
2019-01-25T08:47:47.393Z,35.50
2019-01-25T08:50:19.051Z,35.50
2019-01-25T08:52:47.654Z,35.50
2019-01-25T08:55:16.372Z,35.50
2019-01-25T08:57:44.783Z,35.60
2019-01-25T09:00:15.978Z,35.70
2019-01-25T09:02:44.367Z,35.50
2019-01-25T09:05:13.045Z,35.50
2019-01-25T09:07:41.458Z,35.40
2019-01-25T09:10:15.245Z,35.20
2019-01-25T09:12:43.562Z,35.00
2019-01-25T09:15:14.568Z,35.00
2019-01-25T09:17:42.955Z,34.90
2019-01-25T09:20:17.070Z,34.70
2019-01-25T09:22:45.488Z,34.60
2019-01-25T09:25:13.871Z,34.60
2019-01-25T09:27:42.225Z,34.50
2019-01-25T09:30:19.338Z,34.60
2019-01-25T09:32:47.734Z,34.60
2019-01-25T09:35:16.629Z,34.50
2019-01-25T09:37:44.968Z,34.60
2019-01-25T09:40:19.430Z,34.80
2019-01-25T09:42:47.759Z,34.90
2019-01-25T09:45:16.121Z,34.60
2019-01-25T09:47:44.461Z,34.60
2019-01-25T09:50:15.947Z,34.50
2019-01-25T09:52:44.349Z,34.50
2019-01-25T09:55:17.905Z,34.30
2019-01-25T09:57:46.463Z,34.40
2019-01-25T10:00:24.306Z,34.80
2019-01-25T10:02:52.657Z,34.40
2019-01-25T10:05:20.985Z,34.20
2019-01-25T10:07:49.404Z,34.20
2019-01-25T10:10:17.815Z,34.00
2019-01-25T10:12:46.199Z,33.90
2019-01-25T10:15:17.678Z,33.70
2019-01-25T10:17:46.067Z,33.70
2019-01-25T10:20:14.467Z,33.70
2019-01-25T10:22:42.855Z,33.60
2019-01-25T10:25:11.475Z,33.60
2019-01-25T10:27:39.825Z,33.60
2019-01-25T10:30:17.147Z,33.50
2019-01-25T10:32:45.516Z,33.50
2019-01-25T10:35:13.865Z,33.70
2019-01-25T10:37:42.249Z,33.60
2019-01-25T10:40:13.754Z,33.30
2019-01-25T10:42:45.499Z,33.40
2019-01-25T10:45:15.829Z,33.40
2019-01-25T10:47:44.249Z,33.60
2019-01-25T10:50:12.647Z,33.00
2019-01-25T10:52:41.029Z,32.80
2019-01-25T10:55:11.195Z,32.70
2019-01-25T10:57:39.659Z,32.70
2019-01-25T11:00:11.325Z,32.30
2019-01-25T11:02:39.755Z,32.30
2019-01-25T11:05:11.230Z,32.30
2019-01-25T11:07:39.637Z,32.10
2019-01-25T11:10:09.143Z,32.00
2019-01-25T11:12:37.653Z,31.80
2019-01-25T11:15:11.901Z,31.80
2019-01-25T11:17:40.290Z,31.20
2019-01-25T11:20:17.703Z,31.50
2019-01-25T11:22:46.107Z,31.20
2019-01-25T11:25:20.469Z,31.20
2019-01-25T11:27:48.881Z,31.30
2019-01-25T11:30:17.691Z,31.50
2019-01-25T11:32:46.121Z,31.60
2019-01-25T11:35:14.683Z,31.80
2019-01-25T11:37:43.041Z,31.90
2019-01-25T11:40:26.297Z,31.90
2019-01-25T11:42:54.723Z,31.90
2019-01-25T11:45:23.116Z,31.90
2019-01-25T11:47:51.600Z,32.10
2019-01-25T11:50:21.026Z,32.20
2019-01-25T11:52:49.351Z,32.20
2019-01-25T11:55:18.715Z,32.30
2019-01-25T11:57:47.057Z,32.40
2019-01-25T12:00:23.715Z,32.40
2019-01-25T12:02:52.311Z,32.40
2019-01-25T12:05:22.501Z,32.40
2019-01-25T12:07:50.966Z,32.50
2019-01-25T12:10:22.041Z,32.50
2019-01-25T12:12:50.421Z,32.30
2019-01-25T12:15:21.851Z,32.40
2019-01-25T12:17:50.208Z,32.10
2019-01-25T12:20:23.810Z,32.10
2019-01-25T12:22:52.308Z,32.10
2019-01-25T12:25:20.691Z,32.10
2019-01-25T12:27:49.071Z,32.00
2019-01-25T12:30:23.036Z,32.00
2019-01-25T12:32:51.429Z,31.90
2019-01-25T12:35:19.899Z,31.90
2019-01-25T12:37:48.277Z,31.90
2019-01-25T12:40:18.462Z,32.00
2019-01-25T12:42:46.769Z,32.00
2019-01-25T12:45:28.929Z,32.00
2019-01-25T12:47:57.306Z,31.70
2019-01-25T12:50:41.057Z,31.70
2019-01-25T12:53:11.013Z,31.70
2019-01-25T12:55:39.387Z,31.50
2019-01-25T12:58:07.777Z,31.60
2019-01-25T13:00:36.535Z,31.70
2019-01-25T13:03:05.202Z,31.70
2019-01-25T13:05:33.587Z,31.60
2019-01-25T13:08:01.989Z,32.00
2019-01-25T13:10:30.420Z,31.60
2019-01-25T13:12:58.818Z,31.70
2019-01-25T13:15:27.204Z,31.50
2019-01-25T13:17:55.563Z,31.50
2019-01-25T13:20:31.339Z,31.50
2019-01-25T13:22:59.732Z,31.70
2019-01-25T13:25:28.260Z,31.70
2019-01-25T13:27:58.376Z,31.50
2019-01-25T13:30:30.901Z,31.50
2019-01-25T13:32:59.300Z,31.40
2019-01-25T13:35:27.706Z,31.50
2019-01-25T13:37:56.163Z,31.60
2019-01-25T13:40:26.102Z,31.60
2019-01-25T13:42:54.478Z,31.70
2019-01-25T13:45:23.378Z,31.50
2019-01-25T13:47:51.769Z,31.50
2019-01-25T13:50:28.750Z,31.50
2019-01-25T13:52:57.053Z,31.40
2019-01-25T13:55:25.371Z,31.60
2019-01-25T13:57:53.759Z,31.60
2019-01-25T14:00:30.339Z,31.70
2019-01-25T14:02:58.712Z,31.80
2019-01-25T14:05:27.185Z,31.90
2019-01-25T14:07:55.640Z,32.00
2019-01-25T14:10:26.811Z,32.10
2019-01-25T14:12:55.200Z,32.10
2019-01-25T14:15:23.588Z,32.10
2019-01-25T14:17:51.993Z,32.30
2019-01-25T14:20:23.325Z,32.20
2019-01-25T14:22:52.086Z,32.10
2019-01-25T14:25:20.533Z,32.10
2019-01-25T14:27:48.930Z,32.10
2019-01-25T14:30:26.059Z,32.10
2019-01-25T14:32:54.467Z,32.20
2019-01-25T14:35:22.994Z,32.20
2019-01-25T14:37:52.477Z,32.30
2019-01-25T14:40:21.252Z,32.40
2019-01-25T14:42:49.621Z,32.30
2019-01-25T14:45:19.615Z,32.40
2019-01-25T14:47:48.122Z,32.40
2019-01-25T14:50:22.103Z,32.30
2019-01-25T14:52:50.511Z,32.30
2019-01-25T14:55:18.926Z,32.20
2019-01-25T14:57:47.308Z,32.10
2019-01-25T15:00:15.938Z,32.00
2019-01-25T15:02:44.431Z,32.00
2019-01-25T15:05:15.859Z,32.00
2019-01-25T15:07:44.355Z,32.00
2019-01-25T15:10:15.183Z,32.10
2019-01-25T15:12:43.635Z,32.20
2019-01-25T15:15:13.547Z,32.30
2019-01-25T15:17:41.868Z,32.30
2019-01-25T15:20:13.319Z,32.30
2019-01-25T15:22:41.707Z,32.40
2019-01-25T15:25:10.115Z,32.40
2019-01-25T15:27:38.572Z,32.40
2019-01-25T15:30:15.430Z,32.40
2019-01-25T15:32:43.863Z,32.50
2019-01-25T15:35:13.747Z,32.60
2019-01-25T15:37:42.140Z,32.60
2019-01-25T15:40:14.594Z,32.30
2019-01-25T15:42:42.995Z,32.20
2019-01-25T15:45:16.478Z,31.90
2019-01-25T15:47:44.937Z,32.10
2019-01-25T15:50:16.486Z,31.70
2019-01-25T15:52:44.942Z,31.70
2019-01-25T15:55:13.324Z,31.90
2019-01-25T15:57:41.775Z,31.90
2019-01-25T16:00:12.923Z,31.90
2019-01-25T16:02:41.301Z,31.80
2019-01-25T16:05:11.740Z,31.70
2019-01-25T16:07:40.125Z,31.80
2019-01-25T16:10:14.095Z,31.80
2019-01-25T16:12:42.509Z,31.80
2019-01-25T16:15:19.834Z,31.90
2019-01-25T16:17:48.225Z,32.30
2019-01-25T16:20:18.269Z,31.90
2019-01-25T16:22:47.484Z,31.90
2019-01-25T16:25:18.582Z,31.90
2019-01-25T16:27:46.957Z,32.10
2019-01-25T16:30:18.157Z,32.10
2019-01-25T16:32:46.547Z,32.30
2019-01-25T16:35:15.183Z,32.70
2019-01-25T16:37:43.584Z,32.30
2019-01-25T16:40:23.374Z,32.10
2019-01-25T16:42:51.751Z,32.10
2019-01-25T16:45:22.984Z,32.10
2019-01-25T16:47:51.421Z,31.90
2019-01-25T16:50:23.878Z,31.90
2019-01-25T16:52:49.869Z,31.90
2019-01-25T16:55:18.256Z,31.80
2019-01-25T16:57:46.726Z,31.90
2019-01-25T17:00:35.920Z,31.90
2019-01-25T17:03:04.379Z,31.90
2019-01-25T17:05:32.769Z,31.70
2019-01-25T17:08:01.219Z,31.60
2019-01-25T17:10:29.636Z,31.60
2019-01-25T17:12:58.050Z,31.70
2019-01-25T17:15:26.763Z,31.60
2019-01-25T17:17:55.229Z,31.70
2019-01-25T17:20:27.767Z,31.70
2019-01-25T17:22:56.257Z,31.80
2019-01-25T17:25:24.670Z,31.70
2019-01-25T17:27:53.063Z,31.70
2019-01-25T17:30:26.587Z,31.80
2019-01-25T17:32:56.501Z,31.90
2019-01-25T17:35:24.906Z,32.00
2019-01-25T17:37:53.316Z,32.20
2019-01-25T17:40:24.425Z,32.30
2019-01-25T17:42:52.836Z,32.30
2019-01-25T17:45:21.184Z,32.30
2019-01-25T17:47:49.756Z,32.30
2019-01-25T17:50:18.200Z,32.40
2019-01-25T17:52:46.739Z,32.40
2019-01-25T17:55:16.458Z,32.50
2019-01-25T17:57:47.350Z,32.50
2019-01-25T18:00:25.501Z,32.60
2019-01-25T18:02:53.911Z,32.70
2019-01-25T18:05:22.289Z,32.80
2019-01-25T18:07:50.675Z,32.90
2019-01-25T18:10:21.285Z,33.10
2019-01-25T18:12:49.642Z,33.20
2019-01-25T18:15:18.673Z,33.20
2019-01-25T18:17:47.058Z,33.20
2019-01-25T18:20:17.375Z,33.40
2019-01-25T18:22:45.836Z,33.40
2019-01-25T18:25:20.318Z,33.50
2019-01-25T18:27:51.962Z,33.70
2019-01-25T18:30:30.034Z,33.80
2019-01-25T18:32:58.411Z,33.80
2019-01-25T18:35:26.822Z,33.90
2019-01-25T18:37:56.202Z,34.00
2019-01-25T18:40:24.543Z,34.10
2019-01-25T18:42:52.894Z,34.20
2019-01-25T18:45:21.392Z,34.30
2019-01-25T18:47:49.678Z,34.40
2019-01-25T18:50:18.142Z,34.60
2019-01-25T18:52:46.509Z,34.70
2019-01-25T18:55:18.058Z,34.80
2019-01-25T18:57:46.436Z,34.80
2019-01-25T19:00:19.566Z,34.90
2019-01-25T19:02:48.068Z,35.00
2019-01-25T19:05:16.440Z,35.20
2019-01-25T19:07:44.820Z,35.30
2019-01-25T19:10:16.527Z,35.30
2019-01-25T19:12:44.910Z,35.30
2019-01-25T19:15:16.674Z,35.40
2019-01-25T19:17:45.003Z,36.00
2019-01-25T19:20:14.148Z,35.60
2019-01-25T19:22:42.611Z,35.60
2019-01-25T19:25:11.554Z,35.70
2019-01-25T19:27:39.959Z,35.80
2019-01-25T19:30:14.198Z,36.00
2019-01-25T19:32:42.601Z,36.00
2019-01-25T19:35:12.466Z,36.10
2019-01-25T19:37:40.910Z,36.10
2019-01-25T19:40:18.271Z,36.30
2019-01-25T19:42:46.669Z,36.30
2019-01-25T19:45:15.125Z,36.30
2019-01-25T19:47:43.502Z,36.40
2019-01-25T19:50:15.157Z,36.50
2019-01-25T19:52:43.551Z,36.50
2019-01-25T19:55:14.978Z,36.60
2019-01-25T19:57:43.395Z,36.50
2019-01-25T20:00:20.519Z,36.50
2019-01-25T20:02:48.841Z,36.50
2019-01-25T20:05:22.664Z,36.60
2019-01-25T20:07:51.065Z,36.60
2019-01-25T20:10:20.344Z,36.60
2019-01-25T20:12:50.659Z,36.60
2019-01-25T20:15:21.752Z,36.70
2019-01-25T20:17:50.161Z,37.10
2019-01-25T20:20:21.811Z,36.70
2019-01-25T20:22:50.221Z,36.80
2019-01-25T20:25:18.946Z,36.80
2019-01-25T20:27:47.285Z,36.40
2019-01-25T20:30:19.070Z,36.80
2019-01-25T20:32:47.509Z,36.90
2019-01-25T20:35:21.523Z,36.80
2019-01-25T20:37:49.922Z,36.80
2019-01-25T20:40:18.253Z,36.80
2019-01-25T20:42:47.310Z,36.70
2019-01-25T20:45:18.715Z,36.80
2019-01-25T20:47:47.112Z,36.80
2019-01-25T20:50:24.128Z,36.80
2019-01-25T20:52:52.521Z,36.90
2019-01-25T20:55:20.808Z,36.80
2019-01-25T20:57:49.245Z,37.00
2019-01-25T21:00:23.599Z,37.00
2019-01-25T21:02:52.012Z,37.00
2019-01-25T21:05:20.435Z,37.00
2019-01-25T21:07:48.775Z,37.10
2019-01-25T21:10:22.114Z,37.00
2019-01-25T21:12:50.513Z,37.00
2019-01-25T21:15:21.096Z,36.90
2019-01-25T21:17:49.521Z,36.90
2019-01-25T21:20:20.413Z,36.80
2019-01-25T21:22:48.841Z,36.80
2019-01-25T21:25:17.242Z,36.70
2019-01-25T21:27:45.653Z,36.60
2019-01-25T21:30:19.748Z,37.10
2019-01-25T21:32:48.144Z,36.70
2019-01-25T21:35:16.554Z,36.80
2019-01-25T21:37:45.041Z,36.80
2019-01-25T21:40:16.329Z,36.80
2019-01-25T21:42:44.696Z,36.80
2019-01-25T21:45:15.820Z,36.90
2019-01-25T21:47:44.150Z,36.90
2019-01-25T21:50:16.125Z,36.90
2019-01-25T21:52:44.532Z,37.00
2019-01-25T21:55:15.094Z,37.10
2019-01-25T21:57:43.495Z,37.30
2019-01-25T22:00:23.365Z,37.40
2019-01-25T22:02:51.684Z,37.60
2019-01-25T22:05:20.360Z,37.60
2019-01-25T22:07:48.648Z,37.80
2019-01-25T22:10:19.873Z,38.00
2019-01-25T22:12:48.242Z,38.30
2019-01-25T22:15:18.308Z,38.40
2019-01-25T22:17:46.687Z,38.40
2019-01-25T22:20:18.081Z,38.70
2019-01-25T22:22:46.760Z,38.80
2019-01-25T22:25:15.267Z,38.80
2019-01-25T22:27:45.030Z,39.10
2019-01-25T22:30:18.861Z,39.10
2019-01-25T22:32:47.277Z,39.30
2019-01-25T22:35:15.606Z,39.30
2019-01-25T22:37:44.139Z,39.60
2019-01-25T22:40:15.254Z,39.60
2019-01-25T22:42:43.639Z,39.70
2019-01-25T22:45:14.642Z,39.80
2019-01-25T22:47:43.058Z,40.00
2019-01-25T22:50:14.816Z,40.00
2019-01-25T22:52:43.334Z,40.20
2019-01-25T22:55:14.367Z,40.30
2019-01-25T22:57:42.786Z,40.20
2019-01-25T23:00:46.090Z,40.20
2019-01-25T23:03:16.476Z,40.40
2019-01-25T23:06:17.008Z,40.30
2019-01-25T23:08:45.421Z,40.30
2019-01-25T23:11:13.844Z,40.30
2019-01-25T23:13:42.241Z,40.20
2019-01-25T23:16:10.618Z,40.10
2019-01-25T23:18:39.055Z,40.10
2019-01-25T23:21:07.442Z,40.10
2019-01-25T23:23:35.860Z,39.90
2019-01-25T23:26:04.244Z,39.90
2019-01-25T23:28:32.746Z,39.70
2019-01-25T23:31:01.140Z,39.60
2019-01-25T23:33:29.470Z,39.50
2019-01-25T23:35:57.881Z,39.40
2019-01-25T23:38:26.261Z,39.20
2019-01-25T23:40:54.703Z,39.20
2019-01-25T23:43:23.064Z,39.20
2019-01-25T23:45:51.449Z,39.20
2019-01-25T23:48:19.840Z,39.20
2019-01-25T23:50:48.391Z,39.60
2019-01-25T23:53:16.699Z,39.10
2019-01-25T23:55:45.141Z,39.10
2019-01-25T23:58:13.509Z,39.00
